sensor_id;sensor_type;location;lat;lon;timestamp;P1;durP1;ratioP1;P2;durP2;ratioP2
9128;SDS011;4599;50.906;6.786;2024-03-08T00:00:50;18.47;;;11.97;;
9128;SDS011;4599;50.906;6.786;2024-03-08T00:04:51;15.97;;;11.37;;
9128;SDS011;4599;50.906;6.786;2024-03-08T00:08:53;16.50;;;11.50;;
9128;SDS011;4599;50.906;6.786;2024-03-08T00:12:55;18.23;;;10.87;;
9128;SDS011;4599;50.906;6.786;2024-03-08T00:16:58;18.97;;;12.10;;
9128;SDS011;4599;50.906;6.786;2024-03-08T00:21:00;16.67;;;11.37;;
9128;SDS011;4599;50.906;6.786;2024-03-08T00:25:02;13.73;;;10.90;;
9128;SDS011;4599;50.906;6.786;2024-03-08T00:29:04;16.17;;;11.23;;
9128;SDS011;4599;50.906;6.786;2024-03-08T00:33:07;17.67;;;11.90;;
9128;SDS011;4599;50.906;6.786;2024-03-08T00:37:09;15.87;;;11.37;;
9128;SDS011;4599;50.906;6.786;2024-03-08T00:41:10;17.50;;;11.53;;
9128;SDS011;4599;50.906;6.786;2024-03-08T00:45:12;19.70;;;11.60;;
9128;SDS011;4599;50.906;6.786;2024-03-08T00:49:15;17.23;;;11.70;;
9128;SDS011;4599;50.906;6.786;2024-03-08T00:53:17;16.77;;;11.57;;
9128;SDS011;4599;50.906;6.786;2024-03-08T00:57:19;21.10;;;11.47;;
9128;SDS011;4599;50.906;6.786;2024-03-08T01:01:20;17.07;;;11.93;;
9128;SDS011;4599;50.906;6.786;2024-03-08T01:05:23;17.87;;;11.37;;
9128;SDS011;4599;50.906;6.786;2024-03-08T01:09:25;16.07;;;12.00;;
9128;SDS011;4599;50.906;6.786;2024-03-08T01:13:27;15.23;;;11.07;;
9128;SDS011;4599;50.906;6.786;2024-03-08T01:17:29;19.60;;;12.60;;
9128;SDS011;4599;50.906;6.786;2024-03-08T01:21:32;16.30;;;10.97;;
9128;SDS011;4599;50.906;6.786;2024-03-08T01:25:34;17.67;;;12.40;;
9128;SDS011;4599;50.906;6.786;2024-03-08T01:29:35;20.33;;;13.43;;
9128;SDS011;4599;50.906;6.786;2024-03-08T01:33:37;18.80;;;12.13;;
9128;SDS011;4599;50.906;6.786;2024-03-08T01:37:40;18.20;;;12.80;;
9128;SDS011;4599;50.906;6.786;2024-03-08T01:41:42;18.37;;;11.70;;
9128;SDS011;4599;50.906;6.786;2024-03-08T01:45:44;20.53;;;13.03;;
9128;SDS011;4599;50.906;6.786;2024-03-08T01:49:46;16.77;;;10.37;;
9128;SDS011;4599;50.906;6.786;2024-03-08T01:53:49;17.27;;;12.00;;
9128;SDS011;4599;50.906;6.786;2024-03-08T01:57:51;17.70;;;12.10;;
9128;SDS011;4599;50.906;6.786;2024-03-08T02:01:53;19.20;;;12.73;;
9128;SDS011;4599;50.906;6.786;2024-03-08T02:05:57;16.33;;;11.97;;
9128;SDS011;4599;50.906;6.786;2024-03-08T02:10:00;19.93;;;12.83;;
9128;SDS011;4599;50.906;6.786;2024-03-08T02:14:02;19.40;;;12.10;;
9128;SDS011;4599;50.906;6.786;2024-03-08T02:18:04;21.03;;;13.63;;
9128;SDS011;4599;50.906;6.786;2024-03-08T02:22:07;21.17;;;13.00;;
9128;SDS011;4599;50.906;6.786;2024-03-08T02:26:09;20.47;;;13.80;;
9128;SDS011;4599;50.906;6.786;2024-03-08T02:30:11;18.77;;;12.40;;
9128;SDS011;4599;50.906;6.786;2024-03-08T02:34:13;18.87;;;12.97;;
9128;SDS011;4599;50.906;6.786;2024-03-08T02:38:17;19.33;;;12.57;;
9128;SDS011;4599;50.906;6.786;2024-03-08T02:42:20;21.07;;;14.20;;
9128;SDS011;4599;50.906;6.786;2024-03-08T02:46:21;21.50;;;13.67;;
9128;SDS011;4599;50.906;6.786;2024-03-08T02:50:23;19.43;;;13.43;;
9128;SDS011;4599;50.906;6.786;2024-03-08T02:54:26;21.40;;;13.53;;
9128;SDS011;4599;50.906;6.786;2024-03-08T02:58:28;19.33;;;12.90;;
9128;SDS011;4599;50.906;6.786;2024-03-08T03:02:30;19.13;;;13.37;;
9128;SDS011;4599;50.906;6.786;2024-03-08T03:06:31;20.03;;;13.23;;
9128;SDS011;4599;50.906;6.786;2024-03-08T03:10:34;20.60;;;13.70;;
9128;SDS011;4599;50.906;6.786;2024-03-08T03:14:36;19.90;;;12.80;;
9128;SDS011;4599;50.906;6.786;2024-03-08T03:18:38;20.70;;;13.80;;
9128;SDS011;4599;50.906;6.786;2024-03-08T03:22:40;19.10;;;13.57;;
9128;SDS011;4599;50.906;6.786;2024-03-08T03:26:43;19.50;;;13.03;;
9128;SDS011;4599;50.906;6.786;2024-03-08T03:30:45;21.30;;;13.50;;
9128;SDS011;4599;50.906;6.786;2024-03-08T03:34:47;20.07;;;13.57;;
9128;SDS011;4599;50.906;6.786;2024-03-08T03:38:49;20.03;;;13.63;;
9128;SDS011;4599;50.906;6.786;2024-03-08T03:42:52;22.03;;;14.13;;
9128;SDS011;4599;50.906;6.786;2024-03-08T03:46:53;23.30;;;14.13;;
9128;SDS011;4599;50.906;6.786;2024-03-08T03:50:55;19.67;;;13.47;;
9128;SDS011;4599;50.906;6.786;2024-03-08T03:54:57;19.40;;;13.70;;
9128;SDS011;4599;50.906;6.786;2024-03-08T03:59:00;20.77;;;13.37;;
9128;SDS011;4599;50.906;6.786;2024-03-08T04:03:02;22.63;;;13.60;;
9128;SDS011;4599;50.906;6.786;2024-03-08T04:07:04;21.73;;;14.50;;
9128;SDS011;4599;50.906;6.786;2024-03-08T04:11:06;20.33;;;14.33;;
9128;SDS011;4599;50.906;6.786;2024-03-08T04:15:11;23.37;;;14.30;;
9128;SDS011;4599;50.906;6.786;2024-03-08T04:19:13;22.23;;;14.00;;
9128;SDS011;4599;50.906;6.786;2024-03-08T04:23:15;20.17;;;13.93;;
9128;SDS011;4599;50.906;6.786;2024-03-08T04:27:16;25.57;;;14.13;;
9128;SDS011;4599;50.906;6.786;2024-03-08T04:31:19;23.67;;;14.67;;
9128;SDS011;4599;50.906;6.786;2024-03-08T04:35:21;22.97;;;15.10;;
9128;SDS011;4599;50.906;6.786;2024-03-08T04:39:23;23.80;;;14.60;;
9128;SDS011;4599;50.906;6.786;2024-03-08T04:43:25;23.90;;;14.67;;
9128;SDS011;4599;50.906;6.786;2024-03-08T04:47:28;21.77;;;13.80;;
9128;SDS011;4599;50.906;6.786;2024-03-08T04:51:30;22.60;;;14.67;;
9128;SDS011;4599;50.906;6.786;2024-03-08T04:55:32;24.27;;;14.60;;
9128;SDS011;4599;50.906;6.786;2024-03-08T04:59:33;23.30;;;14.70;;
9128;SDS011;4599;50.906;6.786;2024-03-08T05:03:37;27.50;;;14.30;;
9128;SDS011;4599;50.906;6.786;2024-03-08T05:07:38;23.57;;;13.63;;
9128;SDS011;4599;50.906;6.786;2024-03-08T05:11:40;20.20;;;13.90;;
9128;SDS011;4599;50.906;6.786;2024-03-08T05:15:42;21.70;;;14.13;;
9128;SDS011;4599;50.906;6.786;2024-03-08T05:19:45;20.87;;;13.73;;
9128;SDS011;4599;50.906;6.786;2024-03-08T05:23:46;21.93;;;13.93;;
9128;SDS011;4599;50.906;6.786;2024-03-08T05:27:49;23.87;;;14.87;;
9128;SDS011;4599;50.906;6.786;2024-03-08T05:31:51;23.07;;;14.13;;
9128;SDS011;4599;50.906;6.786;2024-03-08T05:35:54;21.17;;;14.17;;
9128;SDS011;4599;50.906;6.786;2024-03-08T05:39:58;24.83;;;14.80;;
9128;SDS011;4599;50.906;6.786;2024-03-08T05:44:00;22.23;;;14.07;;
9128;SDS011;4599;50.906;6.786;2024-03-08T05:48:01;23.07;;;14.90;;
9128;SDS011;4599;50.906;6.786;2024-03-08T05:52:05;23.63;;;15.37;;
9128;SDS011;4599;50.906;6.786;2024-03-08T05:56:07;21.80;;;14.67;;
9128;SDS011;4599;50.906;6.786;2024-03-08T06:00:09;21.07;;;14.57;;
9128;SDS011;4599;50.906;6.786;2024-03-08T06:04:11;25.90;;;14.73;;
9128;SDS011;4599;50.906;6.786;2024-03-08T06:08:15;21.77;;;15.50;;
9128;SDS011;4599;50.906;6.786;2024-03-08T06:12:16;25.60;;;15.53;;
9128;SDS011;4599;50.906;6.786;2024-03-08T06:16:19;26.93;;;15.40;;
9128;SDS011;4599;50.906;6.786;2024-03-08T06:20:34;25.80;;;14.97;;
9128;SDS011;4599;50.906;6.786;2024-03-08T06:24:45;23.23;;;14.23;;
9128;SDS011;4599;50.906;6.786;2024-03-08T06:28:53;19.53;;;13.07;;
9128;SDS011;4599;50.906;6.786;2024-03-08T06:32:56;22.63;;;14.87;;
9128;SDS011;4599;50.906;6.786;2024-03-08T06:36:58;25.23;;;15.23;;
9128;SDS011;4599;50.906;6.786;2024-03-08T06:41:01;23.53;;;15.27;;
9128;SDS011;4599;50.906;6.786;2024-03-08T06:45:03;29.93;;;14.97;;
9128;SDS011;4599;50.906;6.786;2024-03-08T06:49:06;23.37;;;15.30;;
9128;SDS011;4599;50.906;6.786;2024-03-08T06:53:07;22.70;;;14.63;;
9128;SDS011;4599;50.906;6.786;2024-03-08T06:57:10;21.60;;;15.10;;
9128;SDS011;4599;50.906;6.786;2024-03-08T07:01:13;24.60;;;16.13;;
9128;SDS011;4599;50.906;6.786;2024-03-08T07:05:16;22.80;;;15.57;;
9128;SDS011;4599;50.906;6.786;2024-03-08T07:09:18;25.07;;;15.47;;
9128;SDS011;4599;50.906;6.786;2024-03-08T07:13:23;24.83;;;15.20;;
9128;SDS011;4599;50.906;6.786;2024-03-08T07:17:24;22.90;;;13.83;;
9128;SDS011;4599;50.906;6.786;2024-03-08T07:21:26;21.10;;;13.93;;
9128;SDS011;4599;50.906;6.786;2024-03-08T07:25:28;24.57;;;15.47;;
9128;SDS011;4599;50.906;6.786;2024-03-08T07:29:31;24.97;;;15.30;;
9128;SDS011;4599;50.906;6.786;2024-03-08T07:33:33;22.97;;;14.77;;
9128;SDS011;4599;50.906;6.786;2024-03-08T07:37:35;22.17;;;15.23;;
9128;SDS011;4599;50.906;6.786;2024-03-08T07:41:37;20.87;;;14.07;;
9128;SDS011;4599;50.906;6.786;2024-03-08T07:45:40;23.73;;;14.73;;
9128;SDS011;4599;50.906;6.786;2024-03-08T07:49:42;22.40;;;14.23;;
9128;SDS011;4599;50.906;6.786;2024-03-08T07:53:44;23.87;;;15.40;;
9128;SDS011;4599;50.906;6.786;2024-03-08T07:57:46;18.07;;;12.50;;
9128;SDS011;4599;50.906;6.786;2024-03-08T08:01:49;20.30;;;12.80;;
9128;SDS011;4599;50.906;6.786;2024-03-08T08:05:51;17.80;;;13.13;;
9128;SDS011;4599;50.906;6.786;2024-03-08T08:09:52;20.03;;;12.57;;
9128;SDS011;4599;50.906;6.786;2024-03-08T08:13:54;18.30;;;11.83;;
9128;SDS011;4599;50.906;6.786;2024-03-08T08:17:58;25.23;;;15.13;;
9128;SDS011;4599;50.906;6.786;2024-03-08T08:22:00;22.77;;;13.20;;
9128;SDS011;4599;50.906;6.786;2024-03-08T08:26:02;19.97;;;11.47;;
9128;SDS011;4599;50.906;6.786;2024-03-08T08:30:04;21.63;;;13.80;;
9128;SDS011;4599;50.906;6.786;2024-03-08T08:34:10;22.10;;;12.47;;
9128;SDS011;4599;50.906;6.786;2024-03-08T08:38:12;17.27;;;11.70;;
9128;SDS011;4599;50.906;6.786;2024-03-08T08:42:14;16.90;;;10.47;;
9128;SDS011;4599;50.906;6.786;2024-03-08T08:46:16;20.23;;;13.30;;
9128;SDS011;4599;50.906;6.786;2024-03-08T08:50:22;18.40;;;11.43;;
9128;SDS011;4599;50.906;6.786;2024-03-08T08:54:26;18.47;;;10.63;;
9128;SDS011;4599;50.906;6.786;2024-03-08T08:58:27;18.67;;;11.93;;
9128;SDS011;4599;50.906;6.786;2024-03-08T09:02:29;19.77;;;13.03;;
9128;SDS011;4599;50.906;6.786;2024-03-08T09:06:32;20.80;;;12.67;;
9128;SDS011;4599;50.906;6.786;2024-03-08T09:10:34;17.77;;;11.67;;
9128;SDS011;4599;50.906;6.786;2024-03-08T09:14:36;16.03;;;10.20;;
9128;SDS011;4599;50.906;6.786;2024-03-08T09:18:37;19.93;;;11.77;;
9128;SDS011;4599;50.906;6.786;2024-03-08T09:22:40;15.53;;;11.03;;
9128;SDS011;4599;50.906;6.786;2024-03-08T09:26:45;19.23;;;12.20;;
9128;SDS011;4599;50.906;6.786;2024-03-08T09:30:46;19.13;;;12.47;;
9128;SDS011;4599;50.906;6.786;2024-03-08T09:34:59;18.90;;;12.37;;
9128;SDS011;4599;50.906;6.786;2024-03-08T09:39:03;16.77;;;11.30;;
9128;SDS011;4599;50.906;6.786;2024-03-08T09:43:04;16.50;;;11.27;;
9128;SDS011;4599;50.906;6.786;2024-03-08T09:47:06;16.10;;;11.43;;
9128;SDS011;4599;50.906;6.786;2024-03-08T09:51:10;16.47;;;10.57;;
9128;SDS011;4599;50.906;6.786;2024-03-08T09:55:13;15.93;;;11.03;;
9128;SDS011;4599;50.906;6.786;2024-03-08T09:59:17;16.30;;;11.10;;
9128;SDS011;4599;50.906;6.786;2024-03-08T10:03:19;16.57;;;10.43;;
9128;SDS011;4599;50.906;6.786;2024-03-08T10:07:21;13.47;;;9.63;;
9128;SDS011;4599;50.906;6.786;2024-03-08T10:11:24;16.23;;;11.10;;
9128;SDS011;4599;50.906;6.786;2024-03-08T10:15:26;12.60;;;8.90;;
9128;SDS011;4599;50.906;6.786;2024-03-08T10:19:28;13.87;;;9.27;;
9128;SDS011;4599;50.906;6.786;2024-03-08T10:23:30;10.83;;;8.03;;
9128;SDS011;4599;50.906;6.786;2024-03-08T10:27:34;13.60;;;8.93;;
9128;SDS011;4599;50.906;6.786;2024-03-08T10:31:35;12.70;;;8.57;;
9128;SDS011;4599;50.906;6.786;2024-03-08T10:35:37;9.60;;;7.33;;
9128;SDS011;4599;50.906;6.786;2024-03-08T10:39:38;13.77;;;7.37;;
9128;SDS011;4599;50.906;6.786;2024-03-08T10:43:56;9.80;;;7.97;;
9128;SDS011;4599;50.906;6.786;2024-03-08T10:48:17;10.33;;;7.23;;
9128;SDS011;4599;50.906;6.786;2024-03-08T10:52:27;9.33;;;7.77;;
9128;SDS011;4599;50.906;6.786;2024-03-08T10:56:29;10.17;;;7.73;;
9128;SDS011;4599;50.906;6.786;2024-03-08T11:00:33;13.03;;;7.87;;
9128;SDS011;4599;50.906;6.786;2024-03-08T11:04:36;10.23;;;8.17;;
9128;SDS011;4599;50.906;6.786;2024-03-08T11:08:38;9.83;;;6.90;;
9128;SDS011;4599;50.906;6.786;2024-03-08T11:12:40;9.07;;;6.90;;
9128;SDS011;4599;50.906;6.786;2024-03-08T11:16:43;11.40;;;8.20;;
9128;SDS011;4599;50.906;6.786;2024-03-08T11:20:45;10.77;;;7.53;;
9128;SDS011;4599;50.906;6.786;2024-03-08T11:24:50;8.17;;;6.33;;
9128;SDS011;4599;50.906;6.786;2024-03-08T11:28:51;13.00;;;7.70;;
9128;SDS011;4599;50.906;6.786;2024-03-08T11:32:55;12.80;;;7.43;;
9128;SDS011;4599;50.906;6.786;2024-03-08T11:37:03;13.47;;;7.50;;
9128;SDS011;4599;50.906;6.786;2024-03-08T11:41:05;10.73;;;7.73;;
9128;SDS011;4599;50.906;6.786;2024-03-08T11:45:08;12.47;;;7.60;;
9128;SDS011;4599;50.906;6.786;2024-03-08T11:49:12;11.30;;;7.83;;
9128;SDS011;4599;50.906;6.786;2024-03-08T11:53:13;9.30;;;7.27;;
9128;SDS011;4599;50.906;6.786;2024-03-08T11:57:16;11.17;;;8.03;;
9128;SDS011;4599;50.906;6.786;2024-03-08T12:01:19;11.67;;;7.73;;
9128;SDS011;4599;50.906;6.786;2024-03-08T12:05:22;8.43;;;6.93;;
9128;SDS011;4599;50.906;6.786;2024-03-08T12:09:24;10.33;;;7.97;;
9128;SDS011;4599;50.906;6.786;2024-03-08T12:13:26;10.73;;;7.93;;
9128;SDS011;4599;50.906;6.786;2024-03-08T12:17:27;12.50;;;8.53;;
9128;SDS011;4599;50.906;6.786;2024-03-08T12:21:31;13.33;;;8.03;;
9128;SDS011;4599;50.906;6.786;2024-03-08T12:25:33;9.47;;;7.30;;
9128;SDS011;4599;50.906;6.786;2024-03-08T12:29:37;13.43;;;8.40;;
9128;SDS011;4599;50.906;6.786;2024-03-08T12:33:46;12.53;;;8.00;;
9128;SDS011;4599;50.906;6.786;2024-03-08T12:37:51;9.47;;;7.50;;
9128;SDS011;4599;50.906;6.786;2024-03-08T12:41:55;9.83;;;7.67;;
9128;SDS011;4599;50.906;6.786;2024-03-08T12:45:57;10.60;;;8.40;;
9128;SDS011;4599;50.906;6.786;2024-03-08T12:49:59;9.77;;;7.43;;
9128;SDS011;4599;50.906;6.786;2024-03-08T12:54:02;11.47;;;7.53;;
9128;SDS011;4599;50.906;6.786;2024-03-08T12:58:08;10.13;;;7.57;;
9128;SDS011;4599;50.906;6.786;2024-03-08T13:02:10;11.33;;;7.97;;
9128;SDS011;4599;50.906;6.786;2024-03-08T13:06:12;10.63;;;6.93;;
9128;SDS011;4599;50.906;6.786;2024-03-08T13:10:15;9.97;;;7.00;;
9128;SDS011;4599;50.906;6.786;2024-03-08T13:14:17;10.23;;;7.70;;
9128;SDS011;4599;50.906;6.786;2024-03-08T13:18:20;10.57;;;7.47;;
9128;SDS011;4599;50.906;6.786;2024-03-08T13:22:22;10.97;;;7.53;;
9128;SDS011;4599;50.906;6.786;2024-03-08T13:26:25;9.33;;;6.70;;
9128;SDS011;4599;50.906;6.786;2024-03-08T13:30:27;18.80;;;13.67;;
9128;SDS011;4599;50.906;6.786;2024-03-08T13:34:29;22.87;;;14.07;;
9128;SDS011;4599;50.906;6.786;2024-03-08T13:38:31;11.53;;;8.47;;
9128;SDS011;4599;50.906;6.786;2024-03-08T13:42:34;10.37;;;7.40;;
9128;SDS011;4599;50.906;6.786;2024-03-08T13:46:36;12.77;;;9.27;;
9128;SDS011;4599;50.906;6.786;2024-03-08T13:50:39;18.13;;;8.73;;
9128;SDS011;4599;50.906;6.786;2024-03-08T13:54:41;9.50;;;6.90;;
9128;SDS011;4599;50.906;6.786;2024-03-08T13:58:44;13.00;;;9.13;;
9128;SDS011;4599;50.906;6.786;2024-03-08T14:02:45;9.93;;;6.93;;
9128;SDS011;4599;50.906;6.786;2024-03-08T14:06:49;40.70;;;24.17;;
9128;SDS011;4599;50.906;6.786;2024-03-08T14:10:51;48.17;;;29.90;;
9128;SDS011;4599;50.906;6.786;2024-03-08T14:14:54;87.10;;;46.57;;
9128;SDS011;4599;50.906;6.786;2024-03-08T14:18:57;68.37;;;35.80;;
9128;SDS011;4599;50.906;6.786;2024-03-08T14:22:59;17.87;;;11.47;;
9128;SDS011;4599;50.906;6.786;2024-03-08T14:27:00;26.80;;;14.63;;
9128;SDS011;4599;50.906;6.786;2024-03-08T14:31:04;36.33;;;18.00;;
9128;SDS011;4599;50.906;6.786;2024-03-08T14:35:07;16.87;;;9.77;;
9128;SDS011;4599;50.906;6.786;2024-03-08T14:39:09;11.73;;;8.33;;
9128;SDS011;4599;50.906;6.786;2024-03-08T14:43:11;11.27;;;7.20;;
9128;SDS011;4599;50.906;6.786;2024-03-08T14:47:14;11.07;;;7.07;;
9128;SDS011;4599;50.906;6.786;2024-03-08T14:51:16;10.43;;;6.97;;
9128;SDS011;4599;50.906;6.786;2024-03-08T14:55:20;10.10;;;6.50;;
9128;SDS011;4599;50.906;6.786;2024-03-08T14:59:22;8.50;;;6.27;;
9128;SDS011;4599;50.906;6.786;2024-03-08T15:03:26;9.40;;;6.83;;
9128;SDS011;4599;50.906;6.786;2024-03-08T15:07:27;8.93;;;6.30;;
9128;SDS011;4599;50.906;6.786;2024-03-08T15:11:29;9.63;;;6.50;;
9128;SDS011;4599;50.906;6.786;2024-03-08T15:15:31;13.63;;;8.20;;
9128;SDS011;4599;50.906;6.786;2024-03-08T15:19:34;81.73;;;43.67;;
9128;SDS011;4599;50.906;6.786;2024-03-08T15:23:35;11.70;;;7.17;;
9128;SDS011;4599;50.906;6.786;2024-03-08T15:27:38;8.27;;;6.13;;
9128;SDS011;4599;50.906;6.786;2024-03-08T15:31:39;9.43;;;6.50;;
9128;SDS011;4599;50.906;6.786;2024-03-08T15:35:43;8.03;;;6.67;;
9128;SDS011;4599;50.906;6.786;2024-03-08T15:39:45;8.63;;;6.40;;
9128;SDS011;4599;50.906;6.786;2024-03-08T15:43:47;8.83;;;5.70;;
9128;SDS011;4599;50.906;6.786;2024-03-08T15:47:48;8.10;;;6.10;;
9128;SDS011;4599;50.906;6.786;2024-03-08T15:51:51;8.43;;;5.93;;
9128;SDS011;4599;50.906;6.786;2024-03-08T15:55:53;8.90;;;6.43;;
9128;SDS011;4599;50.906;6.786;2024-03-08T15:59:55;10.77;;;7.10;;
9128;SDS011;4599;50.906;6.786;2024-03-08T16:03:57;9.73;;;7.03;;
9128;SDS011;4599;50.906;6.786;2024-03-08T16:08:01;12.77;;;6.50;;
9128;SDS011;4599;50.906;6.786;2024-03-08T16:12:04;9.47;;;6.73;;
9128;SDS011;4599;50.906;6.786;2024-03-08T16:16:06;8.93;;;6.13;;
9128;SDS011;4599;50.906;6.786;2024-03-08T16:20:08;8.83;;;6.57;;
9128;SDS011;4599;50.906;6.786;2024-03-08T16:24:11;12.77;;;7.27;;
9128;SDS011;4599;50.906;6.786;2024-03-08T16:28:13;9.40;;;6.90;;
9128;SDS011;4599;50.906;6.786;2024-03-08T16:32:15;9.77;;;7.60;;
9128;SDS011;4599;50.906;6.786;2024-03-08T16:36:17;10.83;;;7.33;;
9128;SDS011;4599;50.906;6.786;2024-03-08T16:40:20;9.60;;;7.27;;
9128;SDS011;4599;50.906;6.786;2024-03-08T16:44:22;13.07;;;6.90;;
9128;SDS011;4599;50.906;6.786;2024-03-08T16:48:24;11.27;;;7.70;;
9128;SDS011;4599;50.906;6.786;2024-03-08T16:52:26;10.73;;;7.57;;
9128;SDS011;4599;50.906;6.786;2024-03-08T16:56:29;13.43;;;6.30;;
9128;SDS011;4599;50.906;6.786;2024-03-08T17:00:31;10.27;;;7.20;;
9128;SDS011;4599;50.906;6.786;2024-03-08T17:04:33;10.93;;;7.93;;
9128;SDS011;4599;50.906;6.786;2024-03-08T17:08:35;10.73;;;7.73;;
9128;SDS011;4599;50.906;6.786;2024-03-08T17:12:38;11.37;;;7.63;;
9128;SDS011;4599;50.906;6.786;2024-03-08T17:16:40;10.27;;;7.53;;
9128;SDS011;4599;50.906;6.786;2024-03-08T17:20:41;10.73;;;7.53;;
9128;SDS011;4599;50.906;6.786;2024-03-08T17:24:43;11.07;;;7.80;;
9128;SDS011;4599;50.906;6.786;2024-03-08T17:28:48;10.67;;;8.03;;
9128;SDS011;4599;50.906;6.786;2024-03-08T17:32:50;10.93;;;8.00;;
9128;SDS011;4599;50.906;6.786;2024-03-08T17:36:54;10.73;;;7.53;;
9128;SDS011;4599;50.906;6.786;2024-03-08T17:40:57;13.70;;;8.03;;
9128;SDS011;4599;50.906;6.786;2024-03-08T17:45:00;13.23;;;8.53;;
9128;SDS011;4599;50.906;6.786;2024-03-08T17:49:02;15.23;;;7.63;;
9128;SDS011;4599;50.906;6.786;2024-03-08T17:53:04;12.03;;;8.23;;
9128;SDS011;4599;50.906;6.786;2024-03-08T17:57:05;9.90;;;7.40;;
9128;SDS011;4599;50.906;6.786;2024-03-08T18:01:09;13.43;;;8.13;;
9128;SDS011;4599;50.906;6.786;2024-03-08T18:05:10;13.33;;;8.87;;
9128;SDS011;4599;50.906;6.786;2024-03-08T18:09:12;13.60;;;9.13;;
9128;SDS011;4599;50.906;6.786;2024-03-08T18:13:14;14.97;;;9.27;;
9128;SDS011;4599;50.906;6.786;2024-03-08T18:17:17;16.93;;;9.83;;
9128;SDS011;4599;50.906;6.786;2024-03-08T18:21:19;12.97;;;9.60;;
9128;SDS011;4599;50.906;6.786;2024-03-08T18:25:21;13.57;;;9.43;;
9128;SDS011;4599;50.906;6.786;2024-03-08T18:29:22;13.23;;;9.43;;
9128;SDS011;4599;50.906;6.786;2024-03-08T18:33:27;14.80;;;10.03;;
9128;SDS011;4599;50.906;6.786;2024-03-08T18:37:30;13.57;;;9.53;;
9128;SDS011;4599;50.906;6.786;2024-03-08T18:41:32;15.20;;;10.07;;
9128;SDS011;4599;50.906;6.786;2024-03-08T18:45:34;16.97;;;9.63;;
9128;SDS011;4599;50.906;6.786;2024-03-08T18:49:38;14.77;;;9.50;;
9128;SDS011;4599;50.906;6.786;2024-03-08T18:53:40;16.47;;;9.73;;
9128;SDS011;4599;50.906;6.786;2024-03-08T18:57:42;15.83;;;10.57;;
9128;SDS011;4599;50.906;6.786;2024-03-08T19:01:46;14.70;;;9.63;;
9128;SDS011;4599;50.906;6.786;2024-03-08T19:05:49;14.43;;;9.83;;
9128;SDS011;4599;50.906;6.786;2024-03-08T19:09:51;17.50;;;10.40;;
9128;SDS011;4599;50.906;6.786;2024-03-08T19:13:53;15.80;;;11.10;;
9128;SDS011;4599;50.906;6.786;2024-03-08T19:17:55;14.53;;;9.60;;
9128;SDS011;4599;50.906;6.786;2024-03-08T19:21:58;17.17;;;9.93;;
9128;SDS011;4599;50.906;6.786;2024-03-08T19:26:00;15.50;;;10.50;;
9128;SDS011;4599;50.906;6.786;2024-03-08T19:30:02;14.93;;;9.80;;
9128;SDS011;4599;50.906;6.786;2024-03-08T19:34:05;17.33;;;10.20;;
9128;SDS011;4599;50.906;6.786;2024-03-08T19:38:08;16.83;;;10.53;;
9128;SDS011;4599;50.906;6.786;2024-03-08T19:42:10;14.87;;;10.40;;
9128;SDS011;4599;50.906;6.786;2024-03-08T19:46:12;15.23;;;10.20;;
9128;SDS011;4599;50.906;6.786;2024-03-08T19:50:15;15.63;;;10.63;;
9128;SDS011;4599;50.906;6.786;2024-03-08T19:54:19;15.60;;;10.13;;
9128;SDS011;4599;50.906;6.786;2024-03-08T19:58:22;16.23;;;10.20;;
9128;SDS011;4599;50.906;6.786;2024-03-08T20:02:24;16.43;;;10.50;;
9128;SDS011;4599;50.906;6.786;2024-03-08T20:06:26;17.20;;;11.10;;
9128;SDS011;4599;50.906;6.786;2024-03-08T20:10:29;15.53;;;9.73;;
9128;SDS011;4599;50.906;6.786;2024-03-08T20:14:31;16.10;;;11.10;;
9128;SDS011;4599;50.906;6.786;2024-03-08T20:18:33;18.17;;;12.50;;
9128;SDS011;4599;50.906;6.786;2024-03-08T20:22:35;16.17;;;10.87;;
9128;SDS011;4599;50.906;6.786;2024-03-08T20:26:38;14.53;;;10.53;;
9128;SDS011;4599;50.906;6.786;2024-03-08T20:30:40;16.50;;;10.10;;
9128;SDS011;4599;50.906;6.786;2024-03-08T20:34:42;16.57;;;11.33;;
9128;SDS011;4599;50.906;6.786;2024-03-08T20:38:44;18.73;;;11.53;;
9128;SDS011;4599;50.906;6.786;2024-03-08T20:42:47;19.67;;;10.50;;
9128;SDS011;4599;50.906;6.786;2024-03-08T20:46:48;16.57;;;10.43;;
9128;SDS011;4599;50.906;6.786;2024-03-08T20:50:50;18.07;;;12.63;;
9128;SDS011;4599;50.906;6.786;2024-03-08T20:54:52;19.03;;;11.13;;
9128;SDS011;4599;50.906;6.786;2024-03-08T20:58:55;16.37;;;10.73;;
9128;SDS011;4599;50.906;6.786;2024-03-08T21:02:57;19.97;;;11.60;;
9128;SDS011;4599;50.906;6.786;2024-03-08T21:06:59;17.87;;;11.27;;
9128;SDS011;4599;50.906;6.786;2024-03-08T21:11:01;17.07;;;11.13;;
9128;SDS011;4599;50.906;6.786;2024-03-08T21:15:04;17.87;;;10.73;;
9128;SDS011;4599;50.906;6.786;2024-03-08T21:19:07;18.07;;;11.87;;
9128;SDS011;4599;50.906;6.786;2024-03-08T21:23:08;19.80;;;11.53;;
9128;SDS011;4599;50.906;6.786;2024-03-08T21:27:10;16.23;;;11.23;;
9128;SDS011;4599;50.906;6.786;2024-03-08T21:31:13;18.53;;;11.83;;
9128;SDS011;4599;50.906;6.786;2024-03-08T21:35:15;16.63;;;11.10;;
9128;SDS011;4599;50.906;6.786;2024-03-08T21:39:17;17.87;;;10.53;;
9128;SDS011;4599;50.906;6.786;2024-03-08T21:43:18;15.57;;;10.73;;
9128;SDS011;4599;50.906;6.786;2024-03-08T21:47:22;17.23;;;10.43;;
9128;SDS011;4599;50.906;6.786;2024-03-08T21:51:23;17.90;;;10.80;;
9128;SDS011;4599;50.906;6.786;2024-03-08T21:55:25;17.20;;;10.80;;
9128;SDS011;4599;50.906;6.786;2024-03-08T21:59:27;15.90;;;10.57;;
9128;SDS011;4599;50.906;6.786;2024-03-08T22:03:30;16.93;;;10.97;;
9128;SDS011;4599;50.906;6.786;2024-03-08T22:07:31;17.30;;;11.07;;
9128;SDS011;4599;50.906;6.786;2024-03-08T22:11:33;24.13;;;11.80;;
9128;SDS011;4599;50.906;6.786;2024-03-08T22:15:35;13.87;;;10.20;;
9128;SDS011;4599;50.906;6.786;2024-03-08T22:19:38;16.37;;;10.53;;
9128;SDS011;4599;50.906;6.786;2024-03-08T22:23:40;17.93;;;10.77;;
9128;SDS011;4599;50.906;6.786;2024-03-08T22:27:42;18.40;;;11.17;;
9128;SDS011;4599;50.906;6.786;2024-03-08T22:31:43;17.93;;;11.80;;
9128;SDS011;4599;50.906;6.786;2024-03-08T22:35:47;16.70;;;11.33;;
9128;SDS011;4599;50.906;6.786;2024-03-08T22:39:48;15.37;;;10.20;;
9128;SDS011;4599;50.906;6.786;2024-03-08T22:43:50;17.33;;;11.30;;
9128;SDS011;4599;50.906;6.786;2024-03-08T22:47:52;16.17;;;10.70;;
9128;SDS011;4599;50.906;6.786;2024-03-08T22:51:55;16.27;;;10.50;;
9128;SDS011;4599;50.906;6.786;2024-03-08T22:55:57;16.63;;;10.60;;
9128;SDS011;4599;50.906;6.786;2024-03-08T22:59:59;19.83;;;10.73;;
9128;SDS011;4599;50.906;6.786;2024-03-08T23:04:01;17.03;;;10.30;;
9128;SDS011;4599;50.906;6.786;2024-03-08T23:08:04;15.00;;;10.07;;
9128;SDS011;4599;50.906;6.786;2024-03-08T23:12:06;18.27;;;10.00;;
9128;SDS011;4599;50.906;6.786;2024-03-08T23:16:08;19.13;;;9.63;;
9128;SDS011;4599;50.906;6.786;2024-03-08T23:20:10;14.17;;;8.87;;
9128;SDS011;4599;50.906;6.786;2024-03-08T23:24:14;15.63;;;10.17;;
9128;SDS011;4599;50.906;6.786;2024-03-08T23:28:15;14.07;;;9.73;;
9128;SDS011;4599;50.906;6.786;2024-03-08T23:32:17;14.00;;;8.90;;
9128;SDS011;4599;50.906;6.786;2024-03-08T23:36:19;12.90;;;8.50;;
9128;SDS011;4599;50.906;6.786;2024-03-08T23:40:22;14.93;;;9.17;;
9128;SDS011;4599;50.906;6.786;2024-03-08T23:44:24;16.63;;;9.10;;
9128;SDS011;4599;50.906;6.786;2024-03-08T23:48:26;12.40;;;8.50;;
9128;SDS011;4599;50.906;6.786;2024-03-08T23:52:27;13.20;;;9.07;;
9128;SDS011;4599;50.906;6.786;2024-03-08T23:56:30;13.77;;;8.60;;
